createdAt,value
2023-07-16T08:01:14.077Z,25.88
2023-07-16T08:02:14.130Z,26.11
2023-07-16T08:03:14.293Z,26.17
2023-07-16T08:04:14.269Z,26.21
2023-07-16T08:05:14.290Z,26.25
2023-07-16T08:06:14.431Z,26.27
2023-07-16T08:07:14.287Z,26.29
2023-07-16T08:08:14.303Z,26.31
2023-07-16T08:09:14.350Z,26.34
2023-07-16T08:10:14.389Z,26.35
2023-07-16T08:11:14.404Z,26.36
2023-07-16T08:12:16.043Z,26.37
2023-07-16T08:13:14.486Z,26.38
2023-07-16T08:14:14.544Z,26.39
2023-07-16T08:15:14.574Z,26.40
2023-07-16T08:16:14.780Z,26.40
2023-07-16T08:17:14.740Z,26.41
2023-07-16T08:18:14.719Z,26.42
2023-07-16T08:19:14.704Z,26.42
2023-07-16T08:20:14.738Z,26.43
2023-07-16T08:21:14.817Z,26.44
2023-07-16T08:22:14.811Z,26.45
2023-07-16T08:23:14.911Z,26.46
2023-07-16T08:24:14.891Z,26.46
2023-07-16T08:25:14.973Z,26.48
2023-07-16T08:26:15.083Z,26.48
2023-07-16T08:27:15.024Z,26.48
2023-07-16T08:28:15.011Z,26.49
2023-07-16T08:29:15.076Z,26.50
2023-07-16T08:30:15.102Z,26.51
2023-07-16T08:31:15.189Z,26.51
2023-07-16T08:32:15.188Z,26.51
2023-07-16T08:33:15.196Z,26.52
2023-07-16T08:34:15.228Z,26.52
2023-07-16T08:35:15.260Z,26.52
2023-07-16T08:36:15.506Z,26.53
2023-07-16T08:37:15.299Z,26.53
2023-07-16T08:38:15.320Z,26.54
2023-07-16T08:39:15.355Z,26.53
2023-07-16T08:40:15.379Z,26.54
2023-07-16T08:41:15.422Z,26.55
2023-07-16T08:42:15.481Z,26.55
2023-07-16T08:43:15.496Z,26.55
2023-07-16T08:44:15.501Z,26.55
2023-07-16T08:45:15.508Z,26.56
2023-07-16T08:46:15.874Z,26.56
2023-07-16T08:47:15.587Z,26.56
2023-07-16T08:48:15.603Z,26.56
2023-07-16T08:49:15.606Z,26.56
2023-07-16T08:50:15.661Z,26.57
2023-07-16T08:51:15.665Z,26.56
2023-07-16T08:52:15.713Z,26.57
2023-07-16T08:53:15.733Z,26.57
2023-07-16T08:54:15.746Z,26.58
2023-07-16T08:55:15.785Z,26.57
2023-07-16T08:56:16.084Z,26.58
2023-07-16T08:57:15.823Z,26.58
2023-07-16T08:58:15.873Z,26.59
2023-07-16T08:59:15.903Z,26.59
2023-07-16T09:00:15.930Z,26.59
2023-07-16T09:01:15.954Z,26.59
2023-07-16T09:02:15.973Z,26.59
2023-07-16T09:03:16.003Z,26.59
2023-07-16T09:04:16.009Z,26.59
2023-07-16T09:05:28.160Z,26.59
2023-07-16T09:06:17.349Z,26.59
2023-07-16T09:07:16.029Z,26.58
2023-07-16T09:08:16.036Z,26.59
2023-07-16T09:09:16.017Z,26.59
2023-07-16T09:10:15.997Z,26.59
2023-07-16T09:11:16.006Z,26.59
2023-07-16T09:12:16.003Z,26.59
2023-07-16T09:13:16.005Z,26.60
2023-07-16T09:14:15.980Z,26.59
2023-07-16T09:15:15.977Z,26.60
2023-07-16T09:16:16.216Z,26.60
2023-07-16T09:17:15.988Z,26.59
2023-07-16T09:18:17.311Z,26.60
2023-07-16T09:19:15.972Z,26.59
2023-07-16T09:20:15.934Z,26.60
2023-07-16T09:21:15.909Z,26.60
2023-07-16T09:22:15.924Z,26.60
2023-07-16T09:23:15.916Z,26.60
2023-07-16T09:24:17.431Z,26.61
2023-07-16T09:25:15.901Z,26.61
2023-07-16T09:26:16.150Z,26.60
2023-07-16T09:27:15.902Z,26.60
2023-07-16T09:28:15.899Z,26.61
2023-07-16T09:29:15.847Z,26.61
2023-07-16T09:30:15.890Z,26.62
2023-07-16T09:31:15.864Z,26.61
2023-07-16T09:32:16.125Z,26.60
2023-07-16T09:33:15.832Z,26.62
2023-07-16T09:34:15.833Z,26.61
2023-07-16T09:35:15.838Z,26.62
2023-07-16T09:36:17.883Z,26.62
2023-07-16T09:37:15.810Z,26.62
2023-07-16T09:38:15.813Z,26.62
2023-07-16T09:39:15.802Z,26.63
2023-07-16T09:40:15.811Z,26.62
2023-07-16T09:41:15.790Z,26.63
2023-07-16T09:42:17.567Z,26.63
2023-07-16T09:43:15.786Z,26.63
2023-07-16T09:44:15.753Z,26.63
2023-07-16T09:45:15.773Z,26.63
2023-07-16T09:46:16.113Z,26.64
2023-07-16T09:47:15.736Z,26.63
2023-07-16T09:48:15.771Z,26.64
2023-07-16T09:49:15.751Z,26.63
2023-07-16T09:50:15.740Z,26.65
2023-07-16T09:51:15.701Z,26.64
2023-07-16T09:52:15.701Z,26.64
2023-07-16T09:53:15.699Z,26.64
2023-07-16T09:54:15.695Z,26.64
2023-07-16T09:55:15.686Z,26.64
2023-07-16T09:56:15.843Z,26.64
2023-07-16T09:57:15.659Z,26.65
2023-07-16T09:58:15.669Z,26.64
2023-07-16T09:59:15.633Z,26.65
2023-07-16T10:00:15.649Z,26.65
2023-07-16T10:01:15.799Z,26.65
2023-07-16T10:02:15.826Z,26.66
2023-07-16T10:03:15.727Z,26.65
2023-07-16T10:04:16.303Z,26.66
2023-07-16T10:05:15.849Z,26.65
2023-07-16T10:06:16.091Z,26.65
2023-07-16T10:07:15.877Z,26.66
2023-07-16T10:08:15.896Z,26.66
2023-07-16T10:09:15.938Z,26.66
2023-07-16T10:10:15.941Z,26.66
2023-07-16T10:11:15.982Z,26.66
2023-07-16T10:12:16.122Z,26.66
2023-07-16T10:13:15.988Z,26.66
2023-07-16T10:14:16.037Z,26.66
2023-07-16T10:15:16.059Z,26.66
2023-07-16T10:16:16.321Z,26.66
2023-07-16T10:17:16.084Z,26.67
2023-07-16T10:18:16.153Z,26.67
2023-07-16T10:19:16.108Z,26.66
2023-07-16T10:20:16.139Z,26.67
2023-07-16T10:21:16.169Z,26.67
2023-07-16T10:22:16.196Z,26.67
2023-07-16T10:23:16.224Z,26.67
2023-07-16T10:24:16.181Z,26.67
2023-07-16T10:25:16.209Z,26.68
2023-07-16T10:26:19.905Z,26.68
2023-07-16T10:27:16.218Z,26.68
2023-07-16T10:28:16.218Z,26.67
2023-07-16T10:29:16.216Z,26.68
2023-07-16T10:30:16.203Z,26.68
2023-07-16T10:31:16.210Z,26.68
2023-07-16T10:32:17.235Z,26.69
2023-07-16T10:33:16.195Z,26.68
2023-07-16T10:34:16.168Z,26.68
2023-07-16T10:35:16.191Z,26.69
2023-07-16T10:36:16.392Z,26.69
2023-07-16T10:37:16.180Z,26.69
2023-07-16T10:38:17.797Z,26.69
2023-07-16T10:39:16.153Z,26.69
2023-07-16T10:40:16.149Z,26.69
2023-07-16T10:41:16.124Z,26.69
2023-07-16T10:42:16.131Z,26.70
2023-07-16T10:43:16.100Z,26.70
2023-07-16T10:44:16.111Z,26.70
2023-07-16T10:45:16.103Z,26.70
2023-07-16T10:46:16.397Z,26.69
2023-07-16T10:47:16.090Z,26.70
2023-07-16T10:48:16.074Z,26.69
2023-07-16T10:49:16.070Z,26.70
2023-07-16T10:50:17.366Z,26.70
2023-07-16T10:51:16.049Z,26.71
2023-07-16T10:52:16.052Z,26.70
2023-07-16T10:53:16.037Z,26.70
2023-07-16T10:54:16.024Z,26.70
2023-07-16T10:55:16.059Z,26.71
2023-07-16T10:56:16.276Z,26.70
2023-07-16T10:57:16.025Z,26.72
2023-07-16T10:58:15.996Z,26.72
2023-07-16T10:59:15.990Z,26.71
2023-07-16T11:00:16.008Z,26.71
2023-07-16T11:01:16.069Z,26.71
2023-07-16T11:02:16.002Z,26.71
2023-07-16T11:03:16.072Z,26.72
2023-07-16T11:04:15.957Z,26.71
2023-07-16T11:05:15.987Z,26.71
2023-07-16T11:06:16.193Z,26.71
2023-07-16T11:07:16.008Z,26.71
2023-07-16T11:08:16.017Z,26.71
2023-07-16T11:09:16.042Z,26.72
2023-07-16T11:10:16.044Z,26.71
2023-07-16T11:11:16.069Z,26.71
2023-07-16T11:12:16.060Z,26.72
2023-07-16T11:13:16.101Z,26.72
2023-07-16T11:14:16.134Z,26.72
2023-07-16T11:15:16.131Z,26.72
2023-07-16T11:16:16.300Z,26.72
2023-07-16T11:17:16.183Z,26.73
2023-07-16T11:18:16.148Z,26.72
2023-07-16T11:19:16.181Z,26.73
2023-07-16T11:20:16.262Z,26.74
2023-07-16T11:21:16.197Z,26.73
2023-07-16T11:22:16.270Z,26.73
2023-07-16T11:23:16.253Z,26.74
2023-07-16T11:24:16.294Z,26.75
2023-07-16T11:25:16.315Z,26.74
2023-07-16T11:26:16.564Z,26.75
2023-07-16T11:27:16.339Z,26.75
2023-07-16T11:28:16.345Z,26.76
2023-07-16T11:29:16.353Z,26.76
2023-07-16T11:30:16.453Z,26.76
2023-07-16T11:31:16.461Z,26.76
2023-07-16T11:32:16.382Z,26.76
2023-07-16T11:33:16.521Z,26.77
2023-07-16T11:34:16.396Z,26.77
2023-07-16T11:35:16.449Z,26.77
2023-07-16T11:36:16.710Z,26.78
2023-07-16T11:37:16.438Z,26.78
2023-07-16T11:38:16.463Z,26.78
2023-07-16T11:39:16.482Z,26.78
2023-07-16T11:40:16.543Z,26.78
2023-07-16T11:41:16.483Z,26.79
2023-07-16T11:42:16.492Z,26.79
2023-07-16T11:43:16.528Z,26.79
2023-07-16T11:44:16.541Z,26.80
2023-07-16T11:45:16.564Z,26.80
2023-07-16T11:46:16.775Z,26.80
2023-07-16T11:47:16.662Z,26.81
2023-07-16T11:48:16.617Z,26.81
2023-07-16T11:49:16.596Z,26.83
2023-07-16T11:50:16.721Z,26.83
2023-07-16T11:51:16.638Z,26.84
2023-07-16T11:52:16.643Z,26.84
2023-07-16T11:53:16.649Z,26.85
2023-07-16T11:54:16.655Z,26.85
2023-07-16T11:55:16.668Z,26.86
2023-07-16T11:56:16.870Z,26.86
2023-07-16T11:57:16.735Z,26.87
2023-07-16T11:58:16.712Z,26.86
2023-07-16T11:59:16.700Z,26.87
2023-07-16T12:00:16.787Z,26.88
2023-07-16T12:01:16.783Z,26.88
2023-07-16T12:02:16.730Z,26.89
2023-07-16T12:03:16.845Z,26.88
2023-07-16T12:04:16.785Z,26.88
2023-07-16T12:05:16.783Z,26.88
2023-07-16T12:06:17.094Z,26.89
2023-07-16T12:07:16.780Z,26.91
2023-07-16T12:08:16.823Z,26.91
2023-07-16T12:09:16.796Z,26.92
2023-07-16T12:10:16.786Z,26.93
2023-07-16T12:11:16.846Z,26.93
2023-07-16T12:12:16.842Z,26.94
2023-07-16T12:13:16.833Z,26.94
2023-07-16T12:14:16.846Z,26.95
2023-07-16T12:15:16.839Z,26.95
2023-07-16T12:16:17.011Z,26.95
2023-07-16T12:17:16.931Z,26.95
2023-07-16T12:18:16.945Z,26.95
2023-07-16T12:19:16.850Z,26.95
2023-07-16T12:20:16.867Z,26.96
2023-07-16T12:21:16.883Z,26.97
2023-07-16T12:22:16.886Z,26.98
2023-07-16T12:23:16.937Z,26.99
2023-07-16T12:24:16.921Z,26.99
2023-07-16T12:25:16.913Z,27.01
2023-07-16T12:26:17.153Z,27.01
2023-07-16T12:27:16.964Z,27.02
2023-07-16T12:28:16.952Z,27.02
2023-07-16T12:29:16.969Z,27.02
2023-07-16T12:30:16.999Z,27.02
2023-07-16T12:31:17.053Z,27.01
2023-07-16T12:32:17.016Z,27.03
2023-07-16T12:33:16.978Z,27.03
2023-07-16T12:34:17.013Z,27.04
2023-07-16T12:35:17.020Z,27.04
2023-07-16T12:36:17.420Z,27.04
2023-07-16T12:37:17.047Z,27.04
2023-07-16T12:38:17.076Z,27.04
2023-07-16T12:39:17.060Z,27.04
2023-07-16T12:40:17.056Z,27.04
2023-07-16T12:41:17.063Z,27.05
2023-07-16T12:42:17.063Z,27.04
2023-07-16T12:43:17.113Z,27.05
2023-07-16T12:44:17.119Z,27.05
2023-07-16T12:45:17.124Z,27.04
2023-07-16T12:46:17.397Z,27.04
2023-07-16T12:47:17.156Z,27.05
2023-07-16T12:48:17.198Z,27.05
2023-07-16T12:49:17.183Z,27.05
2023-07-16T12:50:17.199Z,27.06
2023-07-16T12:51:17.212Z,27.06
2023-07-16T12:52:17.192Z,27.06
2023-07-16T12:53:17.211Z,27.06
2023-07-16T12:54:17.280Z,27.07
2023-07-16T12:55:17.281Z,27.07
2023-07-16T12:56:17.562Z,27.07
2023-07-16T12:57:17.321Z,27.08
2023-07-16T12:58:17.367Z,27.07
2023-07-16T12:59:17.412Z,27.08
2023-07-16T13:00:17.437Z,27.07
